Jonesboro, Maine
Current Conditions -  °F | °C
As of 8:35 PM on Friday 19 Dec 2014 (Local Time) from KBHB Reporting Station
Clear Clear  
Wind Chill: 20°   Ceiling: Unl
Heat Index: 27°   Visibility: 10mi
Dew Point: 25°   Wind: 6mph
Humidity: 93%   Direction: 360°N
Pressure: 30.06"   Gusts: NA
Location:  44.66°N, 67.57°W
Report Text: KBHB 200135Z AUTO 36005KT 10SM CLR M03/M04 A3006 RMK AO1
Loading
Personal Weather Stations






























Interactive Weather Map New forecast layout! Learn more

10-Day Weather Forecast

Advertisements
Track Severe Weather on mobile